Time;durP1;ratioP1;P1;durP2;ratioP2;P2;SDS_P1;SDS_P2;PMS_P1;PMS_P2;Temp;Humidity;BMP_temperature;BMP_pressure;BME280_temperature;BME280_humidity;BME280_pressure;Samples;Min_cycle;Max_cycle;Signal;HPM_P1;HPM_P2
2021/08/29 00:02:21;;;;;;;9.20;4.27;;;;;;;;;;5095967;28;20448;-72
2021/08/29 00:04:48;;;;;;;8.93;4.93;;;;;;;;;;5095627;28;20443;-72
2021/08/29 00:07:15;;;;;;;5.97;4.87;;;;;;;;;;5095545;28;20441;-72
2021/08/29 00:09:44;;;;;;;8.60;4.93;;;;;;;;;;5095168;28;20956;-72
2021/08/29 00:12:11;;;;;;;7.10;5.10;;;;;;;;;;5095461;28;20449;-72
2021/08/29 00:14:38;;;;;;;5.97;4.83;;;;;;;;;;5095141;28;20889;-72
2021/08/29 00:17:05;;;;;;;5.80;4.80;;;;;;;;;;5094908;28;20917;-72
2021/08/29 00:19:33;;;;;;;7.20;4.57;;;;;;;;;;5095311;28;20843;-72
2021/08/29 00:22:00;;;;;;;6.83;5.80;;;;;;;;;;5095219;28;20767;-72
2021/08/29 00:24:27;;;;;;;5.37;4.87;;;;;;;;;;5095503;28;20930;-72
2021/08/29 00:26:55;;;;;;;10.23;5.30;;;;;;;;;;5094853;28;20452;-72
2021/08/29 00:29:23;;;;;;;9.93;6.03;;;;;;;;;;5095628;28;20449;-72
2021/08/29 00:31:50;;;;;;;12.43;6.57;;;;;;;;;;5095095;28;20801;-72
2021/08/29 00:34:17;;;;;;;10.80;5.77;;;;;;;;;;5095013;28;20460;-71
2021/08/29 00:36:44;;;;;;;7.93;5.57;;;;;;;;;;5095198;28;20446;-72
2021/08/29 00:39:11;;;;;;;6.37;5.63;;;;;;;;;;5094885;28;20811;-72
2021/08/29 00:41:41;;;;;;;8.07;5.53;;;;;;;;;;5094908;28;20510;-72
2021/08/29 00:44:09;;;;;;;12.13;4.93;;;;;;;;;;5094536;28;20446;-72
2021/08/29 00:46:36;;;;;;;9.27;5.20;;;;;;;;;;5094461;28;20952;-72
2021/08/29 00:49:03;;;;;;;5.77;4.97;;;;;;;;;;5095196;28;20434;-72
2021/08/29 00:51:31;;;;;;;13.13;5.20;;;;;;;;;;5094380;28;20444;-72
2021/08/29 00:53:58;;;;;;;7.90;5.23;;;;;;;;;;5094584;28;20476;-72
2021/08/29 00:56:25;;;;;;;5.50;4.93;;;;;;;;;;5094573;28;20449;-71
2021/08/29 00:58:53;;;;;;;9.43;6.13;;;;;;;;;;5094949;28;20482;-72
2021/08/29 01:01:23;;;;;;;10.23;5.20;;;;;;;;;;5094182;28;20443;-73
2021/08/29 01:03:52;;;;;;;12.03;5.60;;;;;;;;;;5094215;28;20907;-72
2021/08/29 01:06:22;;;;;;;7.77;4.90;;;;;;;;;;5094921;28;20429;-72
2021/08/29 01:08:54;;;;;;;6.87;5.20;;;;;;;;;;5094140;28;20438;-72
2021/08/29 01:11:25;;;;;;;8.00;5.10;;;;;;;;;;5094881;28;20433;-72
2021/08/29 01:13:59;;;;;;;6.10;4.63;;;;;;;;;;5094659;28;20434;-72
2021/08/29 01:16:30;;;;;;;6.17;4.77;;;;;;;;;;5094484;28;20439;-72
2021/08/29 01:18:59;;;;;;;8.20;5.10;;;;;;;;;;5094398;28;20463;-72
2021/08/29 01:21:27;;;;;;;6.57;5.17;;;;;;;;;;5093844;28;20441;-72
2021/08/29 01:23:56;;;;;;;13.77;5.90;;;;;;;;;;5093506;28;20808;-72
2021/08/29 01:26:29;;;;;;;8.80;4.53;;;;;;;;;;5094046;28;20444;-72
2021/08/29 01:28:58;;;;;;;9.20;4.57;;;;;;;;;;5094302;28;20518;-72
2021/08/29 01:31:26;;;;;;;9.00;4.90;;;;;;;;;;5093733;28;20460;-72
2021/08/29 01:33:54;;;;;;;8.00;5.47;;;;;;;;;;5093720;28;20449;-72
2021/08/29 01:36:21;;;;;;;8.00;5.40;;;;;;;;;;5093960;28;20446;-72
2021/08/29 01:38:49;;;;;;;11.07;5.00;;;;;;;;;;5093539;28;20475;-72
2021/08/29 01:41:17;;;;;;;13.77;7.83;;;;;;;;;;5094468;28;20442;-72
2021/08/29 01:43:45;;;;;;;6.73;5.30;;;;;;;;;;5093861;28;20445;-72
2021/08/29 01:46:14;;;;;;;5.73;4.83;;;;;;;;;;5093519;28;20930;-72
2021/08/29 01:48:42;;;;;;;10.30;5.73;;;;;;;;;;5094598;28;20446;-72
2021/08/29 01:51:10;;;;;;;11.80;6.33;;;;;;;;;;5093827;28;20439;-72
2021/08/29 01:53:37;;;;;;;15.23;6.53;;;;;;;;;;5093962;28;21010;-72
2021/08/29 01:56:05;;;;;;;8.43;6.33;;;;;;;;;;5093666;28;20448;-71
2021/08/29 01:58:32;;;;;;;10.17;5.33;;;;;;;;;;5094114;28;20484;-72
2021/08/29 02:01:00;;;;;;;11.83;6.17;;;;;;;;;;5093633;28;20454;-72
2021/08/29 02:03:30;;;;;;;13.40;5.97;;;;;;;;;;5094142;28;20435;-72
2021/08/29 02:05:59;;;;;;;8.60;5.20;;;;;;;;;;5093293;28;20450;-72
2021/08/29 02:08:27;;;;;;;9.87;6.20;;;;;;;;;;5093582;28;20448;-72
2021/08/29 02:10:58;;;;;;;15.40;6.57;;;;;;;;;;5093575;28;20432;-72
2021/08/29 02:13:27;;;;;;;11.50;6.07;;;;;;;;;;5093283;28;20434;-72
2021/08/29 02:15:59;;;;;;;8.57;5.83;;;;;;;;;;5093132;28;20452;-72
2021/08/29 02:18:27;;;;;;;10.87;6.40;;;;;;;;;;5093462;28;20474;-72
2021/08/29 02:20:56;;;;;;;14.23;6.30;;;;;;;;;;5093460;28;20517;-72
2021/08/29 02:23:26;;;;;;;14.23;7.57;;;;;;;;;;5093532;28;20458;-72
2021/08/29 02:25:53;;;;;;;12.20;7.93;;;;;;;;;;5094034;28;20429;-72
2021/08/29 02:28:21;;;;;;;15.07;6.67;;;;;;;;;;5093142;28;20441;-72
2021/08/29 02:30:48;;;;;;;9.77;6.37;;;;;;;;;;5093400;28;20464;-72
2021/08/29 02:33:16;;;;;;;9.73;6.73;;;;;;;;;;5093367;28;20530;-72
2021/08/29 02:35:44;;;;;;;12.93;7.43;;;;;;;;;;5094064;28;20449;-72
2021/08/29 02:38:12;;;;;;;7.00;5.67;;;;;;;;;;5097216;28;20840;-72
2021/08/29 02:40:42;;;;;;;13.90;7.93;;;;;;;;;;5097225;28;20440;-72
2021/08/29 02:43:10;;;;;;;10.40;6.87;;;;;;;;;;5097165;28;20456;-72
2021/08/29 02:45:38;;;;;;;12.33;7.70;;;;;;;;;;5096844;28;20451;-73
2021/08/29 02:48:05;;;;;;;13.93;6.50;;;;;;;;;;5097070;28;20436;-72
2021/08/29 02:50:33;;;;;;;11.30;7.40;;;;;;;;;;5097039;28;20442;-72
2021/08/29 02:53:00;;;;;;;12.60;6.53;;;;;;;;;;5096619;28;20478;-72
2021/08/29 02:55:29;;;;;;;15.33;7.40;;;;;;;;;;5096641;28;20444;-72
2021/08/29 02:57:59;;;;;;;12.80;7.33;;;;;;;;;;5097069;28;20449;-72
2021/08/29 03:00:27;;;;;;;18.60;6.77;;;;;;;;;;5096537;28;20440;-72
2021/08/29 03:02:54;;;;;;;17.97;7.67;;;;;;;;;;5096469;28;20448;-72
2021/08/29 03:05:22;;;;;;;17.07;8.27;;;;;;;;;;5096447;28;20450;-72
2021/08/29 03:07:49;;;;;;;14.33;7.17;;;;;;;;;;5096408;28;20440;-73
2021/08/29 03:10:16;;;;;;;16.30;7.70;;;;;;;;;;5096360;28;20932;-72
2021/08/29 03:12:46;;;;;;;11.23;7.87;;;;;;;;;;5096645;28;20447;-72
2021/08/29 03:15:14;;;;;;;23.07;8.27;;;;;;;;;;5096277;28;20469;-72
2021/08/29 03:17:41;;;;;;;25.73;9.47;;;;;;;;;;5096518;28;20438;-72
2021/08/29 03:20:09;;;;;;;15.53;8.20;;;;;;;;;;5096133;28;21043;-72
2021/08/29 03:22:37;;;;;;;10.93;6.63;;;;;;;;;;5096141;28;20443;-73
2021/08/29 03:25:04;;;;;;;19.23;8.17;;;;;;;;;;5096059;28;20433;-72
2021/08/29 03:27:32;;;;;;;18.23;7.77;;;;;;;;;;5097143;28;20436;-73
2021/08/29 03:30:00;;;;;;;13.87;7.20;;;;;;;;;;5096244;28;20464;-72
2021/08/29 03:32:27;;;;;;;16.63;8.03;;;;;;;;;;5096296;28;20446;-72
2021/08/29 03:34:59;;;;;;;11.53;7.70;;;;;;;;;;5096205;28;20448;-73
2021/08/29 03:37:27;;;;;;;11.57;8.07;;;;;;;;;;5096800;28;20437;-72
2021/08/29 03:39:55;;;;;;;19.60;8.17;;;;;;;;;;5096006;28;20482;-73
2021/08/29 03:42:22;;;;;;;18.47;7.40;;;;;;;;;;5096105;28;20442;-73
2021/08/29 03:44:49;;;;;;;17.10;9.53;;;;;;;;;;5096822;28;20448;-72
2021/08/29 03:47:18;;;;;;;20.60;8.17;;;;;;;;;;5095623;28;20438;-72
2021/08/29 03:49:46;;;;;;;12.37;8.57;;;;;;;;;;5095602;28;20960;-72
2021/08/29 03:52:14;;;;;;;18.13;6.50;;;;;;;;;;5095936;28;20459;-72
2021/08/29 03:54:42;;;;;;;19.60;8.00;;;;;;;;;;5095868;28;20479;-72
2021/08/29 03:57:09;;;;;;;19.07;8.10;;;;;;;;;;5095974;28;20454;-73
2021/08/29 03:59:36;;;;;;;15.67;7.93;;;;;;;;;;5095356;28;20479;-72
2021/08/29 04:02:05;;;;;;;14.40;7.23;;;;;;;;;;5096061;28;20483;-72
2021/08/29 04:04:33;;;;;;;23.77;8.13;;;;;;;;;;5095637;28;20436;-73
2021/08/29 04:07:02;;;;;;;12.33;7.07;;;;;;;;;;5095600;28;20445;-72
2021/08/29 04:09:31;;;;;;;13.23;7.90;;;;;;;;;;5095225;28;20448;-73
2021/08/29 04:11:59;;;;;;;15.50;7.90;;;;;;;;;;5095193;28;20943;-72
2021/08/29 04:14:26;;;;;;;9.47;7.40;;;;;;;;;;5095553;28;20443;-72
2021/08/29 04:16:55;;;;;;;13.40;7.30;;;;;;;;;;5095066;28;20440;-72
2021/08/29 04:19:22;;;;;;;12.93;7.77;;;;;;;;;;5095530;28;20480;-73
2021/08/29 04:21:51;;;;;;;15.60;7.63;;;;;;;;;;5095382;28;20760;-72
2021/08/29 04:24:19;;;;;;;14.10;8.60;;;;;;;;;;5095643;28;20451;-73
2021/08/29 04:26:46;;;;;;;11.80;7.60;;;;;;;;;;5094915;28;20938;-72
2021/08/29 04:29:14;;;;;;;14.37;8.13;;;;;;;;;;5095152;28;20452;-72
2021/08/29 04:31:45;;;;;;;16.23;9.37;;;;;;;;;;5094759;28;20450;-73
2021/08/29 04:34:12;;;;;;;13.07;8.60;;;;;;;;;;5095250;28;20428;-73
2021/08/29 04:36:40;;;;;;;14.00;7.87;;;;;;;;;;5095087;28;20434;-72
2021/08/29 04:39:08;;;;;;;13.43;7.33;;;;;;;;;;5094889;28;20779;-71
2021/08/29 04:41:36;;;;;;;14.80;8.23;;;;;;;;;;5094609;28;20442;-74
2021/08/29 04:44:03;;;;;;;8.73;7.00;;;;;;;;;;5094544;28;20434;-73
2021/08/29 04:46:30;;;;;;;16.20;8.80;;;;;;;;;;5094459;28;20953;-73
2021/08/29 04:48:57;;;;;;;19.47;8.60;;;;;;;;;;5094440;28;20457;-74
2021/08/29 04:51:25;;;;;;;17.57;8.57;;;;;;;;;;5082838;28;21017;-73
2021/08/29 04:53:52;;;;;;;14.50;7.57;;;;;;;;;;5073531;28;20478;-74
2021/08/29 04:56:20;;;;;;;18.03;7.83;;;;;;;;;;5074050;28;20451;-73
2021/08/29 04:58:48;;;;;;;12.27;7.13;;;;;;;;;;5072897;28;20794;-73
2021/08/29 05:01:17;;;;;;;16.97;7.57;;;;;;;;;;5073525;28;20444;-73
2021/08/29 05:03:44;;;;;;;14.23;7.57;;;;;;;;;;5072805;28;20449;-73
2021/08/29 05:06:13;;;;;;;16.27;7.03;;;;;;;;;;5073920;28;20495;-74
2021/08/29 05:08:40;;;;;;;12.90;7.10;;;;;;;;;;5073242;28;20449;-73
2021/08/29 05:11:07;;;;;;;13.33;7.07;;;;;;;;;;5072621;28;20444;-74
2021/08/29 05:13:36;;;;;;;13.50;7.57;;;;;;;;;;5073175;28;20458;-74
2021/08/29 05:16:03;;;;;;;16.13;8.10;;;;;;;;;;5073530;28;20943;-74
2021/08/29 05:18:31;;;;;;;17.90;7.67;;;;;;;;;;5073936;28;20437;-74
2021/08/29 05:20:58;;;;;;;8.90;6.43;;;;;;;;;;5077888;28;20480;-74
2021/08/29 05:23:25;;;;;;;10.60;7.30;;;;;;;;;;5093666;28;20449;-74
2021/08/29 05:25:53;;;;;;;12.37;6.90;;;;;;;;;;5094137;28;20524;-74
2021/08/29 05:28:20;;;;;;;10.40;6.83;;;;;;;;;;5093282;28;20444;-74
2021/08/29 05:30:49;;;;;;;18.47;7.57;;;;;;;;;;5092637;28;20451;-73
2021/08/29 05:33:16;;;;;;;9.00;6.40;;;;;;;;;;5092144;28;20441;-74
2021/08/29 05:35:43;;;;;;;16.07;7.90;;;;;;;;;;5093325;28;20452;-74
2021/08/29 05:38:10;;;;;;;13.67;7.30;;;;;;;;;;5092731;28;20926;-74
2021/08/29 05:40:38;;;;;;;15.47;6.97;;;;;;;;;;5093201;28;20830;-73
2021/08/29 05:43:05;;;;;;;13.37;6.03;;;;;;;;;;5092872;28;20449;-75
2021/08/29 05:45:32;;;;;;;11.80;8.13;;;;;;;;;;5093474;28;20436;-75
2021/08/29 05:48:01;;;;;;;11.70;6.50;;;;;;;;;;5093328;28;20452;-74
2021/08/29 05:50:28;;;;;;;10.60;7.17;;;;;;;;;;5093586;28;20442;-74
2021/08/29 05:52:55;;;;;;;14.27;6.77;;;;;;;;;;5074202;28;20476;-75
2021/08/29 05:55:22;;;;;;;11.90;6.53;;;;;;;;;;5073581;28;20441;-77
2021/08/29 05:57:49;;;;;;;12.60;7.60;;;;;;;;;;5073205;28;20943;-75
2021/08/29 06:00:17;;;;;;;11.47;7.23;;;;;;;;;;5072829;28;20858;-75
2021/08/29 06:02:44;;;;;;;18.30;6.83;;;;;;;;;;5072950;28;20450;-74
2021/08/29 06:05:13;;;;;;;10.13;5.87;;;;;;;;;;5073025;28;20441;-75
2021/08/29 06:07:40;;;;;;;11.60;6.20;;;;;;;;;;5073116;28;20446;-75
2021/08/29 06:10:09;;;;;;;12.43;7.00;;;;;;;;;;5074588;28;20803;-75
2021/08/29 06:12:36;;;;;;;7.10;5.20;;;;;;;;;;5077273;28;20773;-75
2021/08/29 06:15:03;;;;;;;12.00;5.57;;;;;;;;;;5077491;28;20440;-76
2021/08/29 06:17:30;;;;;;;12.70;6.63;;;;;;;;;;5077438;28;20448;-75
2021/08/29 06:19:57;;;;;;;22.17;8.10;;;;;;;;;;5077678;28;20485;-76
2021/08/29 06:22:26;;;;;;;10.97;6.37;;;;;;;;;;5088997;28;20447;-76
2021/08/29 06:24:53;;;;;;;13.63;6.90;;;;;;;;;;5097350;28;20436;-75
2021/08/29 06:27:20;;;;;;;9.33;6.73;;;;;;;;;;5096947;28;20440;-73
2021/08/29 06:29:48;;;;;;;12.60;7.10;;;;;;;;;;5097407;28;20439;-74
2021/08/29 06:32:15;;;;;;;8.80;6.60;;;;;;;;;;5096816;28;20441;-74
2021/08/29 06:34:42;;;;;;;12.27;6.77;;;;;;;;;;5097281;28;20436;-73
2021/08/29 06:37:09;;;;;;;7.60;5.33;;;;;;;;;;5097306;28;20439;-72
2021/08/29 06:39:38;;;;;;;11.90;5.93;;;;;;;;;;5096846;28;21026;-73
2021/08/29 06:42:05;;;;;;;9.53;6.40;;;;;;;;;;5096395;28;20451;-74
2021/08/29 06:44:32;;;;;;;7.07;5.90;;;;;;;;;;5096995;28;20439;-73
2021/08/29 06:46:59;;;;;;;9.63;6.03;;;;;;;;;;5097098;28;20437;-75
2021/08/29 06:49:27;;;;;;;8.50;6.20;;;;;;;;;;5097279;28;20440;-73
2021/08/29 06:51:54;;;;;;;9.50;6.50;;;;;;;;;;5090373;28;20446;-73
2021/08/29 06:54:21;;;;;;;8.27;6.53;;;;;;;;;;5076318;28;20477;-72
2021/08/29 06:56:49;;;;;;;9.60;6.27;;;;;;;;;;5076235;28;20449;-73
2021/08/29 06:59:17;;;;;;;9.07;5.50;;;;;;;;;;5076114;28;20445;-73
2021/08/29 07:01:44;;;;;;;8.03;5.43;;;;;;;;;;5075566;28;20440;-73
2021/08/29 07:04:11;;;;;;;11.50;6.10;;;;;;;;;;5076214;28;20447;-72
2021/08/29 07:06:38;;;;;;;10.83;6.57;;;;;;;;;;5076186;28;20452;-72
2021/08/29 07:09:05;;;;;;;9.33;5.20;;;;;;;;;;5076141;28;20445;-70
2021/08/29 07:11:33;;;;;;;8.73;5.67;;;;;;;;;;5075735;28;20461;-72
2021/08/29 07:14:02;;;;;;;7.80;4.40;;;;;;;;;;5075699;28;20438;-72
2021/08/29 07:16:29;;;;;;;7.70;4.60;;;;;;;;;;5076593;28;20439;-72
2021/08/29 07:18:57;;;;;;;6.03;4.20;;;;;;;;;;5076223;28;20528;-72
2021/08/29 07:21:24;;;;;;;8.73;4.70;;;;;;;;;;5075888;28;20816;-72
2021/08/29 07:23:51;;;;;;;8.27;4.23;;;;;;;;;;5094481;28;20456;-72
2021/08/29 07:26:18;;;;;;;5.40;4.27;;;;;;;;;;5096171;28;20527;-72
2021/08/29 07:28:46;;;;;;;5.83;3.80;;;;;;;;;;5095999;28;20450;-71
2021/08/29 07:31:15;;;;;;;6.93;3.83;;;;;;;;;;5095863;28;20444;-72
2021/08/29 07:33:42;;;;;;;6.80;3.77;;;;;;;;;;5095545;28;20443;-72
2021/08/29 07:36:09;;;;;;;7.03;4.47;;;;;;;;;;5095810;28;20446;-72
2021/08/29 07:38:36;;;;;;;7.20;5.03;;;;;;;;;;5096076;28;20437;-72
2021/08/29 07:41:04;;;;;;;6.63;4.10;;;;;;;;;;5095787;28;20487;-71
2021/08/29 07:43:31;;;;;;;5.10;3.53;;;;;;;;;;5095303;28;20953;-72
2021/08/29 07:45:58;;;;;;;5.40;3.63;;;;;;;;;;5095998;28;20523;-72
2021/08/29 07:48:26;;;;;;;4.10;3.70;;;;;;;;;;5096112;28;20451;-72
2021/08/29 07:50:54;;;;;;;5.20;3.23;;;;;;;;;;5095826;28;20805;-70
2021/08/29 07:53:21;;;;;;;6.27;4.40;;;;;;;;;;5093105;28;20482;-71
2021/08/29 07:55:48;;;;;;;4.10;3.17;;;;;;;;;;5095619;28;20441;-71
2021/08/29 07:58:15;;;;;;;3.60;2.93;;;;;;;;;;5095737;28;20443;-71
2021/08/29 08:00:42;;;;;;;6.03;3.67;;;;;;;;;;5095693;28;20468;-71
2021/08/29 08:03:09;;;;;;;4.47;3.37;;;;;;;;;;5095783;28;20440;-71
2021/08/29 08:05:38;;;;;;;4.43;3.60;;;;;;;;;;5095331;28;20452;-70
2021/08/29 08:08:05;;;;;;;4.10;3.10;;;;;;;;;;5095410;28;20447;-72
2021/08/29 08:10:33;;;;;;;3.10;2.90;;;;;;;;;;5095114;28;20450;-71
2021/08/29 08:13:00;;;;;;;4.30;3.90;;;;;;;;;;5095625;28;20792;-71
2021/08/29 08:15:27;;;;;;;3.50;3.10;;;;;;;;;;5095558;28;20448;-70
2021/08/29 08:17:54;;;;;;;4.37;3.30;;;;;;;;;;5095816;28;20490;-71
2021/08/29 08:20:22;;;;;;;3.43;3.13;;;;;;;;;;5095199;28;20482;-70
2021/08/29 08:22:51;;;;;;;3.10;2.90;;;;;;;;;;5093419;28;20506;-70
2021/08/29 08:25:18;;;;;;;4.70;3.20;;;;;;;;;;5095303;28;20448;-70
2021/08/29 08:27:45;;;;;;;10.43;7.93;;;;;;;;;;5095184;28;20537;-70
2021/08/29 08:30:13;;;;;;;5.80;3.07;;;;;;;;;;5095140;28;20548;-70
2021/08/29 08:32:40;;;;;;;2.70;2.50;;;;;;;;;;5094157;28;20952;-71
2021/08/29 08:35:08;;;;;;;3.40;3.20;;;;;;;;;;5094084;28;20939;-71
2021/08/29 08:37:35;;;;;;;3.27;2.97;;;;;;;;;;5094699;28;20439;-70
2021/08/29 08:40:04;;;;;;;3.13;2.83;;;;;;;;;;5094882;28;20861;-70
2021/08/29 08:42:31;;;;;;;3.13;2.83;;;;;;;;;;5094503;28;20444;-71
2021/08/29 08:44:58;;;;;;;3.27;3.00;;;;;;;;;;5094510;28;20451;-70
2021/08/29 08:47:25;;;;;;;3.50;3.17;;;;;;;;;;5094851;28;20433;-68
2021/08/29 08:49:55;;;;;;;3.70;3.40;;;;;;;;;;5095218;28;20446;-70
2021/08/29 08:52:24;;;;;;;4.10;3.30;;;;;;;;;;5094771;28;20480;-71
2021/08/29 08:54:53;;;;;;;4.30;3.83;;;;;;;;;;5092760;28;20445;-68
2021/08/29 08:57:22;;;;;;;4.10;3.80;;;;;;;;;;5093061;28;20432;-66
2021/08/29 08:59:50;;;;;;;3.83;3.50;;;;;;;;;;5094174;28;20436;-68
2021/08/29 09:02:19;;;;;;;7.60;4.37;;;;;;;;;;5094081;28;20486;-67
2021/08/29 09:04:46;;;;;;;5.80;4.33;;;;;;;;;;5094074;28;20502;-66
2021/08/29 09:07:14;;;;;;;5.37;4.87;;;;;;;;;;5093600;28;20445;-68
2021/08/29 09:09:41;;;;;;;5.93;4.60;;;;;;;;;;5092752;28;20450;-67
2021/08/29 09:12:09;;;;;;;5.63;4.63;;;;;;;;;;5092710;28;20459;-66
2021/08/29 09:14:41;;;;;;;5.97;5.43;;;;;;;;;;5093232;28;21036;-67
2021/08/29 09:17:24;;;;;;;7.50;4.40;;;;;;;;;;5093559;28;20451;-67
2021/08/29 09:19:52;;;;;;;5.57;5.00;;;;;;;;;;5092580;28;20451;-68
2021/08/29 09:22:26;;;;;;;4.40;4.00;;;;;;;;;;5092887;28;20806;-68
2021/08/29 09:24:53;;;;;;;5.03;4.57;;;;;;;;;;5093416;28;20439;-69
2021/08/29 09:27:23;;;;;;;5.10;4.33;;;;;;;;;;5092681;28;20445;-69
2021/08/29 09:29:52;;;;;;;4.47;4.07;;;;;;;;;;5092300;28;20439;-66
2021/08/29 09:32:20;;;;;;;4.53;4.10;;;;;;;;;;5093419;28;21023;-68
2021/08/29 09:34:57;;;;;;;5.77;4.70;;;;;;;;;;5093586;28;20439;-66
2021/08/29 09:37:24;;;;;;;4.77;4.37;;;;;;;;;;5093888;28;20433;-66
2021/08/29 09:39:51;;;;;;;6.93;4.53;;;;;;;;;;5093686;28;20436;-66
2021/08/29 09:42:18;;;;;;;4.70;3.73;;;;;;;;;;5093429;28;20479;-66
2021/08/29 09:44:46;;;;;;;4.90;4.40;;;;;;;;;;5093129;28;20488;-68
2021/08/29 09:47:14;;;;;;;4.67;4.27;;;;;;;;;;5093465;28;20440;-68
2021/08/29 09:49:44;;;;;;;4.73;3.73;;;;;;;;;;5093196;28;20884;-68
2021/08/29 09:52:11;;;;;;;9.30;4.07;;;;;;;;;;5093786;28;20844;-68
2021/08/29 09:54:39;;;;;;;5.17;4.70;;;;;;;;;;5093963;28;20491;-68
2021/08/29 09:57:08;;;;;;;4.93;4.43;;;;;;;;;;5093761;28;20531;-67
2021/08/29 09:59:39;;;;;;;5.60;4.70;;;;;;;;;;5090993;28;20467;-67
2021/08/29 10:02:07;;;;;;;5.17;4.67;;;;;;;;;;5093036;28;20562;-68
2021/08/29 10:04:35;;;;;;;4.93;4.40;;;;;;;;;;5093974;28;20483;-67
2021/08/29 10:07:12;;;;;;;4.60;4.07;;;;;;;;;;5093607;28;20472;-67
2021/08/29 10:09:39;;;;;;;3.50;3.20;;;;;;;;;;5093599;28;20481;-67
2021/08/29 10:12:08;;;;;;;3.43;3.13;;;;;;;;;;5092962;28;20539;-67
2021/08/29 10:14:36;;;;;;;4.10;3.70;;;;;;;;;;5093442;28;20440;-67
2021/08/29 10:17:04;;;;;;;5.77;4.40;;;;;;;;;;5092198;28;20444;-68
2021/08/29 10:19:32;;;;;;;3.73;3.43;;;;;;;;;;5093012;28;20443;-68
2021/08/29 10:22:02;;;;;;;4.77;4.37;;;;;;;;;;5092971;28;20472;-68
2021/08/29 10:24:31;;;;;;;6.10;3.20;;;;;;;;;;5092741;28;20447;-68
2021/08/29 10:27:00;;;;;;;4.07;3.77;;;;;;;;;;5093361;28;20442;-68
2021/08/29 10:29:29;;;;;;;5.40;4.20;;;;;;;;;;5084921;28;20467;-68
2021/08/29 10:32:00;;;;;;;4.20;3.90;;;;;;;;;;5072654;28;20532;-68
2021/08/29 10:34:29;;;;;;;4.20;3.83;;;;;;;;;;5073760;28;20448;-67
2021/08/29 10:36:56;;;;;;;6.20;4.47;;;;;;;;;;5072856;28;20548;-67
2021/08/29 10:39:25;;;;;;;6.30;4.30;;;;;;;;;;5072647;28;20445;-67
2021/08/29 10:41:54;;;;;;;4.47;4.07;;;;;;;;;;5072702;28;20485;-66
2021/08/29 10:44:22;;;;;;;4.40;4.00;;;;;;;;;;5073021;28;20468;-67
2021/08/29 10:46:49;;;;;;;4.33;3.70;;;;;;;;;;5072413;28;20942;-67
2021/08/29 10:49:17;;;;;;;4.53;4.13;;;;;;;;;;5072526;28;20471;-68
2021/08/29 10:51:46;;;;;;;4.93;3.60;;;;;;;;;;5073258;28;20950;-70
2021/08/29 10:54:14;;;;;;;3.80;3.50;;;;;;;;;;5073204;28;20476;-69
2021/08/29 10:56:43;;;;;;;3.93;3.53;;;;;;;;;;5073472;28;20535;-71
2021/08/29 10:59:26;;;;;;;5.03;3.40;;;;;;;;;;5080901;28;20992;-72
2021/08/29 11:01:55;;;;;;;3.60;3.30;;;;;;;;;;5095102;28;20473;-71
2021/08/29 11:04:41;;;;;;;4.33;3.93;;;;;;;;;;5096659;28;20480;-72
2021/08/29 11:07:08;;;;;;;4.33;4.03;;;;;;;;;;5097038;28;20448;-70
2021/08/29 11:09:47;;;;;;;3.50;3.20;;;;;;;;;;5096875;28;20440;-71
2021/08/29 11:12:30;;;;;;;6.83;4.03;;;;;;;;;;5096805;28;20887;-73
2021/08/29 11:14:59;;;;;;;4.70;4.30;;;;;;;;;;5096578;28;20431;-71
2021/08/29 11:17:27;;;;;;;7.33;3.90;;;;;;;;;;5096292;28;20449;-71
2021/08/29 11:19:55;;;;;;;4.40;3.80;;;;;;;;;;5096034;28;20481;-72
2021/08/29 11:22:24;;;;;;;4.50;4.10;;;;;;;;;;5095920;28;20485;-72
2021/08/29 11:25:02;;;;;;;4.37;3.97;;;;;;;;;;5095419;28;20896;-73
2021/08/29 11:28:02;;;;;;;5.20;3.80;;;;;;;;;;5096345;28;20789;-72
2021/08/29 11:30:41;;;;;;;4.43;3.70;;;;;;;;;;5095910;28;20423;-73
2021/08/29 11:33:09;;;;;;;4.73;3.67;;;;;;;;;;5055559;28;20425;-72
2021/08/29 11:35:38;;;;;;;4.87;3.87;;;;;;;;;;5055888;28;20441;-72
2021/08/29 11:38:10;;;;;;;6.30;3.90;;;;;;;;;;5055499;28;20441;-73
2021/08/29 11:41:01;;;;;;;6.33;3.70;;;;;;;;;;5055354;28;20436;-72
2021/08/29 11:43:33;;;;;;;4.33;3.97;;;;;;;;;;5055493;28;20427;-72
2021/08/29 11:46:03;;;;;;;5.97;3.87;;;;;;;;;;5055694;28;20809;-73
2021/08/29 11:48:31;;;;;;;6.00;3.60;;;;;;;;;;5056371;28;20513;-73
2021/08/29 11:50:59;;;;;;;4.40;4.00;;;;;;;;;;5054859;28;20442;-74
2021/08/29 11:53:27;;;;;;;4.33;3.90;;;;;;;;;;5055738;28;20474;-73
2021/08/29 11:55:55;;;;;;;3.40;3.10;;;;;;;;;;5056312;28;20438;-73
2021/08/29 11:58:23;;;;;;;3.67;3.37;;;;;;;;;;5055258;28;20461;-73
2021/08/29 12:00:51;;;;;;;3.63;3.20;;;;;;;;;;5060043;28;20916;-74
2021/08/29 12:03:31;;;;;;;4.40;3.70;;;;;;;;;;5093418;28;20500;-73
2021/08/29 12:06:00;;;;;;;5.03;2.73;;;;;;;;;;5095687;28;20474;-74
2021/08/29 12:08:32;;;;;;;6.80;3.50;;;;;;;;;;5095339;28;20443;-75
2021/08/29 12:11:00;;;;;;;3.90;3.50;;;;;;;;;;5094989;28;20435;-75
2021/08/29 12:13:29;;;;;;;5.50;3.00;;;;;;;;;;5094743;28;20456;-76
2021/08/29 12:15:58;;;;;;;4.27;3.30;;;;;;;;;;5095035;28;20445;-76
2021/08/29 12:18:27;;;;;;;3.87;3.47;;;;;;;;;;5095776;28;20451;-76
2021/08/29 12:20:54;;;;;;;3.10;2.80;;;;;;;;;;5095048;28;20459;-74
2021/08/29 12:23:21;;;;;;;4.73;3.47;;;;;;;;;;5094431;28;20986;-76
2021/08/29 12:25:56;;;;;;;4.40;3.40;;;;;;;;;;5094871;28;20451;-75
2021/08/29 12:28:24;;;;;;;3.70;3.40;;;;;;;;;;5095157;28;20436;-75
2021/08/29 12:30:54;;;;;;;3.53;3.23;;;;;;;;;;5094743;28;20444;-75
2021/08/29 12:33:22;;;;;;;3.40;2.80;;;;;;;;;;5092856;28;20526;-76
2021/08/29 12:35:51;;;;;;;3.23;2.93;;;;;;;;;;5094697;28;20441;-75
2021/08/29 12:38:19;;;;;;;4.07;3.67;;;;;;;;;;5094655;28;20439;-74
2021/08/29 12:40:46;;;;;;;3.20;3.00;;;;;;;;;;5094450;28;20450;-75
2021/08/29 12:43:13;;;;;;;3.37;3.07;;;;;;;;;;5093944;28;20972;-75
2021/08/29 12:45:40;;;;;;;4.43;4.00;;;;;;;;;;5094798;28;20440;-75
2021/08/29 12:48:08;;;;;;;5.73;3.50;;;;;;;;;;5094470;28;20567;-76
2021/08/29 12:50:38;;;;;;;3.50;3.20;;;;;;;;;;5094126;28;20440;-75
2021/08/29 12:53:10;;;;;;;4.67;4.10;;;;;;;;;;5093494;28;20471;-75
2021/08/29 12:55:37;;;;;;;3.43;3.20;;;;;;;;;;5094954;28;20459;-75
2021/08/29 12:58:05;;;;;;;6.83;3.30;;;;;;;;;;5094677;28;20445;-75
2021/08/29 13:00:40;;;;;;;3.87;3.57;;;;;;;;;;5094568;28;20523;-75
2021/08/29 13:03:08;;;;;;;3.93;3.63;;;;;;;;;;5093708;28;20519;-76
2021/08/29 13:05:36;;;;;;;4.70;3.10;;;;;;;;;;5092233;28;20445;-75
2021/08/29 13:08:04;;;;;;;3.70;3.40;;;;;;;;;;5094269;28;20815;-75
2021/08/29 13:10:33;;;;;;;13.50;10.20;;;;;;;;;;5094551;28;20930;-75
2021/08/29 13:13:04;;;;;;;6.17;5.57;;;;;;;;;;5094245;28;20800;-76
2021/08/29 13:15:31;;;;;;;9.57;7.30;;;;;;;;;;5093985;28;20443;-76
2021/08/29 13:17:58;;;;;;;5.03;3.37;;;;;;;;;;5093891;28;20437;-75
2021/08/29 13:20:34;;;;;;;2.87;2.67;;;;;;;;;;5093649;28;20451;-75
2021/08/29 13:23:01;;;;;;;3.10;2.90;;;;;;;;;;5093957;28;20996;-75
2021/08/29 13:25:29;;;;;;;4.17;2.83;;;;;;;;;;5093770;28;20961;-75
2021/08/29 13:27:59;;;;;;;3.30;2.70;;;;;;;;;;5093823;28;20482;-75
2021/08/29 13:30:28;;;;;;;2.80;2.50;;;;;;;;;;5093866;28;20455;-75
2021/08/29 13:32:56;;;;;;;3.07;2.77;;;;;;;;;;5093875;28;20441;-74
2021/08/29 13:35:24;;;;;;;2.47;2.27;;;;;;;;;;5091953;28;20957;-75
2021/08/29 13:37:53;;;;;;;2.47;2.27;;;;;;;;;;5093760;28;20508;-75
2021/08/29 13:40:21;;;;;;;5.00;2.40;;;;;;;;;;5093780;28;20526;-75
2021/08/29 13:42:49;;;;;;;2.93;2.60;;;;;;;;;;5093559;28;20548;-75
2021/08/29 13:45:22;;;;;;;2.60;2.40;;;;;;;;;;5094348;28;20449;-75
2021/08/29 13:47:49;;;;;;;3.33;2.37;;;;;;;;;;5093542;28;20436;-75
2021/08/29 13:50:16;;;;;;;3.10;2.83;;;;;;;;;;5093855;28;20553;-75
2021/08/29 13:52:43;;;;;;;2.20;2.00;;;;;;;;;;5092808;28;20561;-76
2021/08/29 13:55:14;;;;;;;2.60;2.17;;;;;;;;;;5093360;28;20433;-75
2021/08/29 13:57:41;;;;;;;2.40;2.30;;;;;;;;;;5093359;28;20431;-75
2021/08/29 14:00:09;;;;;;;2.43;2.00;;;;;;;;;;5093670;28;20949;-75
2021/08/29 14:02:37;;;;;;;2.27;2.10;;;;;;;;;;5093298;28;20487;-74
2021/08/29 14:05:05;;;;;;;1.80;1.70;;;;;;;;;;5091483;28;20449;-74
2021/08/29 14:07:32;;;;;;;2.00;1.90;;;;;;;;;;5093405;28;20450;-74
2021/08/29 14:09:59;;;;;;;2.27;1.77;;;;;;;;;;5093775;28;20537;-74
2021/08/29 14:12:26;;;;;;;3.67;2.17;;;;;;;;;;5093808;28;20448;-74
2021/08/29 14:14:54;;;;;;;3.63;2.10;;;;;;;;;;5092763;28;20441;-75
2021/08/29 14:17:21;;;;;;;2.17;2.07;;;;;;;;;;5092837;28;20960;-75
2021/08/29 14:19:50;;;;;;;4.07;2.30;;;;;;;;;;5093462;28;20437;-74
2021/08/29 14:22:17;;;;;;;2.80;2.40;;;;;;;;;;5092715;28;20478;-75
2021/08/29 14:24:44;;;;;;;2.20;2.10;;;;;;;;;;5093306;28;20848;-75
2021/08/29 14:27:11;;;;;;;2.53;2.33;;;;;;;;;;5093730;28;20532;-74
2021/08/29 14:29:38;;;;;;;3.13;2.47;;;;;;;;;;5093230;28;20447;-75
2021/08/29 14:32:07;;;;;;;2.37;2.17;;;;;;;;;;5096555;28;20451;-75
2021/08/29 14:34:34;;;;;;;2.40;2.20;;;;;;;;;;5097220;28;20523;-74
2021/08/29 14:37:03;;;;;;;2.63;2.43;;;;;;;;;;5096164;28;20438;-74
2021/08/29 14:39:30;;;;;;;2.50;2.30;;;;;;;;;;5096880;28;20503;-74
2021/08/29 14:41:57;;;;;;;1.90;1.80;;;;;;;;;;5096515;28;20529;-74
2021/08/29 14:44:24;;;;;;;2.17;1.97;;;;;;;;;;5096660;28;20446;-74
2021/08/29 14:46:52;;;;;;;2.10;1.87;;;;;;;;;;5097609;28;20528;-74